Potomac — WBF7534 — position and weather

sailwx.info

Track history (hours):
 
Tides and Currents Weather Stations Pressure Air Temp Water Temp Dewpoint Dewpoint Depression Visibility Wind Speed Wind Dir Waves Ship Positions

Potomac

Owner: POTOMAC ASSOCIATION, OAKLAND, CA. More information available from US FCC via Universal Licensing System and Coast Guard Vessel Documentation Center.

Last reported at 2015-Jul-26 05:21 UTC. Time now 2015-Jul-28 08:22 UTC.
Position N 37°48' W 122°17'.

Length 51 m; draft 3.1 m.

MMSI: 367166810.

Date/timePositionNaut miles runAvg speedWind from/ knotsBaromVisibWave heightAir tempDewpointWater temp
2015-Jul-26 05:21N 37°48' W 122°17'3 4.4
2015-Jul-26 04:33N 37°49' W 122°21'7 7.0
2015-Jul-26 03:33N 37°52' W 122°29'7 7.1
2015-Jul-26 02:33N 37°48' W 122°21'4 0.6
2015-Jul-25 20:33N 37°48' W 122°17'9 9.1
2015-Jul-25 19:33N 37°51' W 122°28'4 4.0
2015-Jul-25 18:33N 37°54' W 122°24'8 8.4
2015-Jul-25 17:33N 37°48' W 122°17'2 0.2
2015-Jul-25 02:33N 37°48' W 122°20'2 2.5
2015-Jul-25 01:33N 37°48' W 122°17'0 0.0
2015-Jul-25 00:33N 37°48' W 122°17'3 2.6
2015-Jul-24 23:33N 37°49' W 122°20'  
2015-Jul-19 04:06N 37°48' W 122°17'0 0.0
2015-Jul-19 00:31N 37°48' W 122°17'2 0.1
2015-Jul-18 02:33N 37°48' W 122°20'2 2.1
2015-Jul-18 01:33N 37°48' W 122°17'0 0.1
2015-Jul-18 00:33N 37°48' W 122°17'3 2.7
2015-Jul-17 23:33N 37°49' W 122°20'3 2.6
2015-Jul-17 22:31N 37°48' W 122°17'0 0.0
2015-Jul-16 19:33N 37°48' W 122°17'8 8.4
2015-Jul-16 18:33N 37°52' W 122°26'9 8.5
2015-Jul-16 17:33N 37°48' W 122°17'0 0.0
2015-Jul-16 16:33N 37°48' W 122°17'  
Track history (hours):
 
Tides and Currents Weather Stations Pressure Air Temp Water Temp Dewpoint Dewpoint Depression Visibility Wind Speed Wind Dir Waves Ship Positions

Potomac

Owner: POTOMAC ASSOCIATION, OAKLAND, CA. More information available from US FCC via Universal Licensing System and Coast Guard Vessel Documentation Center.

Last reported at 2015-Jul-26 05:21 UTC. Time now 2015-Jul-28 08:22 UTC.
Position N 37°48' W 122°17'.

Length 51 m; draft 3.1 m.

MMSI: 367166810.

Date/timePositionNaut miles runAvg speedWind from/ knotsBaromVisibWave heightAir tempDewpointWater temp
2015-Jul-26 05:21N 37°48' W 122°17'3 4.4
2015-Jul-26 04:33N 37°49' W 122°21'7 7.0
2015-Jul-26 03:33N 37°52' W 122°29'7 7.1
2015-Jul-26 02:33N 37°48' W 122°21'4 0.6
2015-Jul-25 20:33N 37°48' W 122°17'9 9.1
2015-Jul-25 19:33N 37°51' W 122°28'4 4.0
2015-Jul-25 18:33N 37°54' W 122°24'8 8.4
2015-Jul-25 17:33N 37°48' W 122°17'2 0.2
2015-Jul-25 02:33N 37°48' W 122°20'2 2.5
2015-Jul-25 01:33N 37°48' W 122°17'0 0.0
2015-Jul-25 00:33N 37°48' W 122°17'3 2.6
2015-Jul-24 23:33N 37°49' W 122°20'  
2015-Jul-19 04:06N 37°48' W 122°17'0 0.0
2015-Jul-19 00:31N 37°48' W 122°17'2 0.1
2015-Jul-18 02:33N 37°48' W 122°20'2 2.1
2015-Jul-18 01:33N 37°48' W 122°17'0 0.1
2015-Jul-18 00:33N 37°48' W 122°17'3 2.7
2015-Jul-17 23:33N 37°49' W 122°20'3 2.6
2015-Jul-17 22:31N 37°48' W 122°17'0 0.0
2015-Jul-16 19:33N 37°48' W 122°17'8 8.4
2015-Jul-16 18:33N 37°52' W 122°26'9 8.5
2015-Jul-16 17:33N 37°48' W 122°17'0 0.0
2015-Jul-16 16:33N 37°48' W 122°17'  

Dump ship's entire track history